Time;durP1;ratioP1;P1;durP2;ratioP2;P2;SDS_P1;SDS_P2;PMS_P1;PMS_P2;Temp;Humidity;BMP_temperature;BMP_pressure;BME280_temperature;BME280_humidity;BME280_pressure;Samples;Min_cycle;Max_cycle;Signal;HPM_P1;HPM_P2
2021/08/17 00:00:32;;;;;;;11.57;7.15;;;10.10;99.90;;;;;;5088610;28;20437;-90
2021/08/17 00:02:59;;;;;;;16.65;7.90;;;10.10;99.90;;;;;;5076291;28;20059;-90
2021/08/17 00:05:26;;;;;;;15.32;7.75;;;10.10;99.90;;;;;;5075772;28;20071;-89
2021/08/17 00:07:53;;;;;;;13.43;7.05;;;10.10;99.90;;;;;;5076016;28;20094;-89
2021/08/17 00:10:22;;;;;;;12.43;7.43;;;10.00;99.90;;;;;;5076157;28;20114;-89
2021/08/17 00:12:49;;;;;;;12.05;7.78;;;10.00;99.90;;;;;;5075994;28;20506;-89
2021/08/17 00:15:17;;;;;;;13.18;7.55;;;10.00;99.90;;;;;;5075791;28;20048;-89
2021/08/17 00:17:43;;;;;;;13.88;7.45;;;10.00;99.90;;;;;;5075885;28;20066;-89
2021/08/17 00:20:11;;;;;;;12.85;7.53;;;10.00;99.90;;;;;;5075492;28;20044;-89
2021/08/17 00:22:38;;;;;;;13.20;8.57;;;9.90;99.90;;;;;;5075787;28;20389;-89
2021/08/17 00:25:06;;;;;;;12.88;7.40;;;9.90;99.90;;;;;;5075696;28;20066;-89
2021/08/17 00:27:34;;;;;;;14.25;7.60;;;9.90;99.90;;;;;;5075785;28;20602;-89
2021/08/17 00:30:00;;;;;;;13.88;8.10;;;9.80;99.90;;;;;;5075960;28;20054;-89
2021/08/17 00:32:27;;;;;;;12.27;7.60;;;9.80;99.90;;;;;;5075783;28;20059;-89
2021/08/17 00:34:56;;;;;;;19.17;8.35;;;9.70;99.90;;;;;;5075753;28;20044;-89
2021/08/17 00:37:22;;;;;;;19.05;8.50;;;9.60;99.90;;;;;;5075572;28;20056;-89
2021/08/17 00:39:49;;;;;;;19.98;8.25;;;9.50;99.90;;;;;;5075721;28;20482;-90
2021/08/17 00:42:16;;;;;;;13.43;8.43;;;9.50;99.90;;;;;;5076012;28;20044;-90
2021/08/17 00:44:43;;;;;;;17.88;9.52;;;9.40;99.90;;;;;;5075728;28;20055;-90
2021/08/17 00:47:13;;;;;;;18.95;10.18;;;9.30;99.90;;;;;;5075556;28;20140;-88
2021/08/17 00:49:40;;;;;;;20.40;11.45;;;9.50;99.90;;;;;;5079507;28;20048;-89
2021/08/17 00:52:12;;;;;;;16.83;11.52;;;9.60;99.90;;;;;;5079521;28;20510;-90
2021/08/17 00:54:45;;;;;;;13.88;10.63;;;9.80;99.90;;;;;;5079267;28;20127;-89
2021/08/17 00:57:12;;;;;;;24.40;12.55;;;9.90;99.90;;;;;;5079443;28;20048;-89
2021/08/17 00:59:40;;;;;;;20.63;11.38;;;10.00;99.90;;;;;;5078925;28;20127;-90
2021/08/17 01:02:07;;;;;;;15.93;10.48;;;10.10;99.90;;;;;;5079220;28;20051;-90
2021/08/17 01:04:37;;;;;;;16.60;9.95;;;10.20;99.90;;;;;;5078848;28;20044;-89
2021/08/17 01:07:06;;;;;;;23.13;9.40;;;10.20;99.90;;;;;;5078809;28;20054;-89
2021/08/17 01:09:32;;;;;;;21.98;9.68;;;10.30;99.90;;;;;;5079070;28;20055;-89
2021/08/17 01:12:00;;;;;;;12.85;8.90;;;10.30;99.90;;;;;;5079175;28;20135;-91
2021/08/17 01:14:27;;;;;;;12.98;8.73;;;10.30;99.90;;;;;;5079298;28;20048;-90
2021/08/17 01:16:54;;;;;;;13.35;8.70;;;10.30;99.90;;;;;;5094350;28;20099;-90
2021/08/17 01:19:22;;;;;;;17.73;9.15;;;10.40;99.90;;;;;;5091667;28;20048;-90
2021/08/17 01:21:49;;;;;;;15.82;9.35;;;10.40;99.90;;;;;;5078575;28;20521;-90
2021/08/17 01:24:17;;;;;;;16.50;9.18;;;10.50;99.90;;;;;;5078693;28;20040;-91
2021/08/17 01:26:44;;;;;;;14.45;8.90;;;10.50;99.90;;;;;;5078408;28;20140;-90
2021/08/17 01:29:15;;;;;;;14.48;8.35;;;10.50;99.90;;;;;;5078842;28;20123;-90
2021/08/17 01:31:42;;;;;;;12.73;8.18;;;10.60;99.90;;;;;;5078586;28;20483;-90
2021/08/17 01:34:09;;;;;;;13.65;8.50;;;10.60;99.90;;;;;;5078645;28;20079;-89
2021/08/17 01:36:36;;;;;;;16.02;8.10;;;10.60;99.90;;;;;;5078326;28;20067;-91
2021/08/17 01:39:04;;;;;;;8.30;6.88;;;10.50;99.90;;;;;;5078089;28;20419;-90
2021/08/17 01:41:30;;;;;;;13.85;7.55;;;10.50;99.90;;;;;;5078599;28;20048;-90
2021/08/17 01:43:57;;;;;;;14.43;7.80;;;10.50;99.90;;;;;;5078590;28;20056;-91
2021/08/17 01:46:24;;;;;;;12.93;6.93;;;10.50;99.90;;;;;;5078008;28;20048;-92
2021/08/17 01:48:51;;;;;;;13.45;6.05;;;10.50;99.90;;;;;;5078280;28;20511;-91
2021/08/17 01:51:17;;;;;;;13.95;6.32;;;10.40;99.90;;;;;;5078543;28;20054;-92
2021/08/17 01:53:44;;;;;;;10.07;6.53;;;10.40;99.90;;;;;;5078379;28;20600;-91
2021/08/17 01:56:15;;;;;;;16.05;6.55;;;10.30;99.90;;;;;;5078273;28;20048;-92
2021/08/17 01:58:42;;;;;;;16.00;7.13;;;10.30;99.90;;;;;;5077736;28;20044;-91
2021/08/17 02:01:11;;;;;;;15.60;7.65;;;10.30;99.90;;;;;;5077306;28;20080;-92
2021/08/17 02:03:39;;;;;;;13.15;6.72;;;10.30;99.90;;;;;;5078066;28;20474;-90
2021/08/17 02:06:07;;;;;;;11.88;7.22;;;10.30;99.90;;;;;;5077386;28;20044;-91
2021/08/17 02:08:33;;;;;;;13.15;7.10;;;10.30;99.90;;;;;;5077570;28;20059;-92
2021/08/17 02:11:00;;;;;;;10.60;6.53;;;10.20;99.90;;;;;;5077839;28;20048;-92
2021/08/17 02:13:28;;;;;;;15.05;6.68;;;10.20;99.90;;;;;;5077723;28;20068;-92
2021/08/17 02:15:57;;;;;;;10.40;6.70;;;10.10;99.90;;;;;;5077812;28;20076;-91
2021/08/17 02:18:24;;;;;;;13.35;6.95;;;10.10;99.90;;;;;;5077601;28;20048;-92
2021/08/17 02:20:51;;;;;;;11.25;6.82;;;10.10;99.90;;;;;;5077427;28;20048;-92
2021/08/17 02:23:17;;;;;;;19.13;7.15;;;10.00;99.90;;;;;;5077616;28;20131;-92
2021/08/17 02:25:44;;;;;;;19.67;7.45;;;10.00;99.90;;;;;;5077358;28;20123;-92
2021/08/17 02:28:11;;;;;;;13.45;7.45;;;9.90;99.90;;;;;;5077679;28;20059;-92
2021/08/17 02:30:38;;;;;;;9.48;6.75;;;9.70;99.90;;;;;;5078055;28;20052;-92
2021/08/17 02:33:05;;;;;;;12.10;7.57;;;9.70;99.90;;;;;;5078098;28;20058;-91
2021/08/17 02:35:31;;;;;;;12.07;7.15;;;9.60;99.90;;;;;;5093087;28;20055;-91
2021/08/17 02:37:58;;;;;;;10.40;7.53;;;9.50;99.90;;;;;;5096565;28;20060;-91
2021/08/17 02:40:25;;;;;;;11.02;7.10;;;9.50;99.90;;;;;;5077015;28;20094;-90
2021/08/17 02:42:51;;;;;;;11.75;7.68;;;9.50;99.90;;;;;;5077026;28;20143;-92
2021/08/17 02:45:18;;;;;;;11.20;7.22;;;9.50;99.90;;;;;;5077287;28;20403;-92
2021/08/17 02:47:45;;;;;;;17.77;8.27;;;9.40;99.90;;;;;;5076596;28;20135;-92
2021/08/17 02:50:11;;;;;;;13.32;8.52;;;9.40;99.90;;;;;;5077037;28;20052;-89
2021/08/17 02:52:38;;;;;;;16.08;7.97;;;9.40;99.90;;;;;;5076998;28;20056;-92
2021/08/17 02:55:07;;;;;;;12.68;8.23;;;9.40;99.90;;;;;;5076847;28;20403;-92
2021/08/17 02:57:33;;;;;;;14.85;9.18;;;9.40;99.90;;;;;;5077155;28;20131;-92
2021/08/17 03:00:00;;;;;;;18.17;9.25;;;9.50;99.90;;;;;;5076993;28;20125;-92
2021/08/17 03:02:27;;;;;;;15.90;9.93;;;9.50;99.90;;;;;;5076811;28;20074;-92
2021/08/17 03:04:54;;;;;;;13.95;8.48;;;9.40;99.90;;;;;;5076868;28;20081;-92
2021/08/17 03:07:21;;;;;;;15.48;8.07;;;9.50;99.90;;;;;;5076526;28;20577;-92
2021/08/17 03:09:48;;;;;;;17.55;8.55;;;9.40;99.90;;;;;;5077042;28;20044;-92
2021/08/17 03:12:14;;;;;;;22.60;10.18;;;9.50;99.90;;;;;;5076580;28;20139;-92
2021/08/17 03:14:41;;;;;;;14.60;9.23;;;9.50;99.90;;;;;;5077076;28;20048;-92
2021/08/17 03:17:08;;;;;;;16.42;9.68;;;9.50;99.90;;;;;;5077285;28;20540;-92
2021/08/17 03:19:35;;;;;;;18.48;11.60;;;9.60;99.90;;;;;;5077271;28;20139;-93
2021/08/17 03:22:02;;;;;;;19.23;11.35;;;9.70;99.90;;;;;;5076505;28;20054;-92
2021/08/17 03:24:28;;;;;;;20.40;11.18;;;9.80;99.90;;;;;;5076447;28;20111;-93
2021/08/17 03:26:55;;;;;;;20.17;11.10;;;9.90;99.90;;;;;;5076086;28;20054;-93
2021/08/17 03:29:22;;;;;;;21.50;10.90;;;10.00;99.90;;;;;;5076456;28;20052;-92
2021/08/17 03:31:49;;;;;;;19.52;10.98;;;10.00;99.90;;;;;;5076445;28;20055;-93
2021/08/17 03:34:15;;;;;;;17.63;10.07;;;10.10;99.90;;;;;;5076476;28;20044;-92
2021/08/17 03:36:42;;;;;;;18.30;10.68;;;10.10;99.90;;;;;;5076276;28;20048;-92
2021/08/17 03:39:09;;;;;;;14.73;8.90;;;10.20;99.90;;;;;;5076149;28;20480;-92
2021/08/17 03:41:36;;;;;;;18.17;10.00;;;10.20;99.90;;;;;;5076238;28;20048;-92
2021/08/17 03:44:03;;;;;;;16.40;9.13;;;10.20;99.90;;;;;;5075906;28;20048;-91
2021/08/17 03:46:30;;;;;;;19.85;10.93;;;10.30;99.90;;;;;;5076072;28;20048;-92
2021/08/17 03:48:56;;;;;;;14.27;9.30;;;10.30;99.90;;;;;;5077014;28;20044;-91
2021/08/17 03:51:23;;;;;;;12.68;8.95;;;10.40;99.90;;;;;;5076754;28;20074;-91
2021/08/17 03:53:50;;;;;;;10.55;8.65;;;10.50;99.90;;;;;;5088598;28;20070;-91
2021/08/17 03:56:17;;;;;;;10.30;8.40;;;10.50;99.90;;;;;;5093984;28;20056;-91
2021/08/17 03:58:44;;;;;;;15.98;8.93;;;10.50;99.90;;;;;;5076231;28;20142;-91
2021/08/17 04:01:10;;;;;;;11.45;7.82;;;10.60;99.90;;;;;;5076298;28;20056;-91
2021/08/17 04:03:37;;;;;;;8.60;7.20;;;10.60;99.90;;;;;;5076771;28;20044;-91
2021/08/17 04:06:04;;;;;;;16.92;7.78;;;10.60;99.90;;;;;;5075922;28;20050;-91
2021/08/17 04:08:31;;;;;;;13.70;7.05;;;10.70;99.90;;;;;;5075838;28;20496;-92
2021/08/17 04:10:57;;;;;;;14.30;8.02;;;10.70;99.90;;;;;;5075915;28;20473;-90
2021/08/17 04:13:24;;;;;;;14.93;7.63;;;10.80;99.90;;;;;;5075542;28;20052;-92
2021/08/17 04:15:51;;;;;;;13.60;7.20;;;10.80;99.90;;;;;;5076018;28;20104;-92
2021/08/17 04:18:18;;;;;;;16.00;7.13;;;10.80;99.90;;;;;;5076148;28;20496;-90
2021/08/17 04:20:45;;;;;;;9.68;6.25;;;10.90;99.90;;;;;;5075561;28;20048;-91
2021/08/17 04:23:11;;;;;;;14.93;7.18;;;10.90;99.90;;;;;;5077569;28;20076;-91
2021/08/17 04:25:38;;;;;;;10.48;6.75;;;11.00;99.90;;;;;;5079182;28;20056;-91
2021/08/17 04:28:05;;;;;;;17.75;6.60;;;11.00;99.90;;;;;;5079781;28;20048;-92
2021/08/17 04:30:32;;;;;;;9.70;5.38;;;11.10;99.90;;;;;;5079471;28;20131;-90
2021/08/17 04:32:58;;;;;;;8.93;6.05;;;11.10;99.90;;;;;;5079573;28;20052;-91
2021/08/17 04:35:25;;;;;;;6.32;5.30;;;11.10;99.90;;;;;;5097061;28;20495;-91
2021/08/17 04:37:56;;;;;;;11.25;6.13;;;11.10;99.90;;;;;;5080109;28;20079;-91
2021/08/17 04:40:23;;;;;;;18.45;5.90;;;11.10;99.90;;;;;;5079346;28;20058;-91
2021/08/17 04:42:50;;;;;;;11.65;5.55;;;11.10;99.90;;;;;;5096903;28;20056;-91
2021/08/17 04:45:17;;;;;;;11.90;5.85;;;11.10;99.90;;;;;;5079469;28;20044;-90
2021/08/17 04:47:50;;;;;;;12.80;5.78;;;11.00;99.90;;;;;;5079543;28;20159;-91
2021/08/17 04:50:19;;;;;;;12.18;6.03;;;11.10;99.90;;;;;;5080233;28;20048;-90
2021/08/17 04:52:47;;;;;;;10.18;5.75;;;11.10;99.90;;;;;;5082499;28;20048;-91
2021/08/17 04:55:14;;;;;;;12.38;5.47;;;11.20;99.90;;;;;;5080268;28;20556;-92
2021/08/17 04:57:58;;;;;;;7.90;4.93;;;11.30;99.90;;;;;;5096783;28;20048;-92
2021/08/17 05:00:28;;;;;;;13.07;5.28;;;11.20;99.90;;;;;;5079324;28;20131;-93
2021/08/17 05:02:55;;;;;;;11.68;4.95;;;11.20;99.90;;;;;;5096600;28;20056;-90
2021/08/17 05:05:23;;;;;;;9.27;4.88;;;11.30;99.90;;;;;;5096800;28;20056;-93
2021/08/17 05:07:51;;;;;;;7.20;3.95;;;11.40;99.90;;;;;;5096821;28;20047;-91
2021/08/17 05:10:21;;;;;;;9.68;4.28;;;11.40;99.90;;;;;;5080882;28;20044;-91
2021/08/17 05:12:48;;;;;;;8.90;4.22;;;11.50;99.90;;;;;;5096425;28;20067;-89
2021/08/17 05:15:15;;;;;;;7.93;3.80;;;11.60;99.90;;;;;;5088131;28;20071;-90
2021/08/17 05:17:42;;;;;;;5.03;3.47;;;11.80;99.90;;;;;;5078930;28;20052;-90
2021/08/17 05:20:10;;;;;;;7.25;3.20;;;11.90;99.90;;;;;;5095738;28;20071;-89
2021/08/17 05:22:40;;;;;;;5.50;3.08;;;12.00;99.90;;;;;;5079279;28;20044;-90
2021/08/17 05:25:07;;;;;;;11.20;3.97;;;12.10;99.90;;;;;;5096372;28;20050;-89
2021/08/17 05:27:34;;;;;;;4.00;3.55;;;12.10;99.90;;;;;;5096291;28;20520;-91
2021/08/17 05:30:01;;;;;;;7.32;3.35;;;12.20;99.90;;;;;;5079020;28;20076;-94
2021/08/17 05:32:28;;;;;;;18.20;3.50;;;12.30;99.90;;;;;;5079031;28;20188;-90
2021/08/17 05:34:55;;;;;;;4.70;2.33;;;12.30;99.90;;;;;;5078801;28;20127;-90
2021/08/17 05:37:22;;;;;;;5.60;2.80;;;12.30;99.90;;;;;;5079213;28;20083;-89
2021/08/17 05:39:48;;;;;;;15.35;2.95;;;12.40;99.90;;;;;;5098071;28;20052;-94
2021/08/17 05:42:15;;;;;;;8.32;2.80;;;12.40;99.90;;;;;;5079278;28;20048;-88
2021/08/17 05:44:44;;;;;;;5.82;2.70;;;12.50;99.90;;;;;;5078031;28;20127;-90
2021/08/17 05:47:12;;;;;;;9.48;2.33;;;12.50;99.90;;;;;;5078662;28;20048;-91
2021/08/17 05:49:39;;;;;;;7.75;2.55;;;12.60;99.90;;;;;;5078405;28;20055;-90
2021/08/17 05:52:08;;;;;;;9.38;2.63;;;12.60;99.90;;;;;;5096415;28;20079;-89
2021/08/17 05:54:35;;;;;;;14.13;3.10;;;12.70;99.90;;;;;;5095706;28;20514;-92
2021/08/17 05:57:02;;;;;;;11.88;2.42;;;12.70;99.90;;;;;;5078847;28;20474;-88
2021/08/17 05:59:31;;;;;;;3.97;2.25;;;12.70;99.90;;;;;;5078138;28;20122;-90
2021/08/17 06:01:59;;;;;;;3.92;2.30;;;12.70;99.90;;;;;;5078625;28;20469;-88
2021/08/17 06:04:27;;;;;;;7.03;2.47;;;12.80;99.90;;;;;;5078021;28;20052;-89
2021/08/17 06:06:54;;;;;;;5.78;2.65;;;12.80;99.90;;;;;;5077840;28;20043;-89
2021/08/17 06:09:22;;;;;;;8.18;3.00;;;12.90;99.90;;;;;;5078041;28;20390;-88
2021/08/17 06:11:50;;;;;;;7.38;3.15;;;12.80;99.90;;;;;;5078229;28;20068;-89
2021/08/17 06:14:17;;;;;;;4.88;2.53;;;12.80;99.90;;;;;;5077694;28;20052;-88
2021/08/17 06:16:44;;;;;;;3.35;2.45;;;12.80;99.90;;;;;;5077723;28;20056;-89
2021/08/17 06:19:11;;;;;;;10.70;2.50;;;12.90;99.90;;;;;;5077737;28;20058;-89
2021/08/17 06:21:38;;;;;;;7.00;2.60;;;13.10;99.90;;;;;;5077584;28;20043;-88
2021/08/17 06:24:06;;;;;;;9.77;2.17;;;13.30;99.90;;;;;;5077307;28;20047;-89
2021/08/17 06:26:33;;;;;;;7.43;2.38;;;13.40;99.90;;;;;;5077645;28;20050;-89
2021/08/17 06:29:00;;;;;;;8.20;2.10;;;13.60;99.90;;;;;;5097140;28;20056;-89
2021/08/17 06:31:27;;;;;;;9.48;4.72;;;13.70;99.90;;;;;;5113630;28;20028;-90
2021/08/17 06:33:56;;;;;;;7.65;3.45;;;14.10;99.90;;;;;;5083137;28;20063;-89
2021/08/17 06:36:24;;;;;;;6.10;2.63;;;14.60;99.90;;;;;;5077046;28;20177;-90
2021/08/17 06:38:51;;;;;;;3.45;1.90;;;15.50;99.90;;;;;;5077251;28;20066;-90
2021/08/17 06:41:18;;;;;;;5.85;2.97;;;16.00;99.90;;;;;;5077035;28;20492;-90
2021/08/17 06:43:45;;;;;;;5.78;2.20;;;16.20;99.90;;;;;;5077144;28;20055;-91
2021/08/17 06:46:12;;;;;;;4.47;1.70;;;16.60;99.90;;;;;;5077044;28;20056;-90
2021/08/17 06:48:39;;;;;;;4.00;1.70;;;16.60;99.90;;;;;;5077513;28;20075;-89
2021/08/17 06:51:08;;;;;;;7.25;1.90;;;16.80;99.90;;;;;;5095280;28;20130;-88
2021/08/17 06:53:35;;;;;;;9.88;5.40;;;17.40;99.90;;;;;;5077031;28;20138;-87
2021/08/17 06:56:02;;;;;;;12.43;8.90;;;16.90;99.90;;;;;;5094788;28;20044;-91
2021/08/17 06:58:28;;;;;;;7.05;6.35;;;17.70;99.90;;;;;;5076908;28;20048;-91
2021/08/17 07:00:55;;;;;;;4.70;4.20;;;18.10;99.90;;;;;;5076788;28;20048;-89
2021/08/17 07:03:22;;;;;;;8.25;4.85;;;18.00;99.90;;;;;;5076829;28;20143;-89
2021/08/17 07:05:49;;;;;;;5.93;1.90;;;18.20;99.90;;;;;;5076743;28;20094;-89
2021/08/17 07:08:16;;;;;;;7.35;2.05;;;18.60;99.90;;;;;;5076522;28;20074;-91
2021/08/17 07:10:44;;;;;;;2.83;1.58;;;18.60;99.90;;;;;;5076947;28;20044;-89
2021/08/17 07:13:23;;;;;;;5.97;1.65;;;18.40;99.90;;;;;;5078459;28;20052;-91
2021/08/17 07:15:50;;;;;;;6.28;2.42;;;17.90;99.90;;;;;;5078818;28;20075;-91
2021/08/17 07:18:17;;;;;;;3.83;1.50;;;17.60;99.90;;;;;;5081102;28;20051;-88
2021/08/17 07:20:44;;;;;;;4.97;2.13;;;17.60;99.90;;;;;;5076722;28;20048;-89
2021/08/17 07:23:11;;;;;;;4.88;1.92;;;18.00;99.90;;;;;;5076754;28;20471;-91
2021/08/17 07:25:38;;;;;;;7.90;1.92;;;17.90;99.90;;;;;;5076414;28;20117;-90
2021/08/17 07:28:05;;;;;;;4.55;1.83;;;17.70;99.90;;;;;;5076230;28;20160;-88
2021/08/17 07:30:32;;;;;;;2.95;1.48;;;17.80;99.90;;;;;;5076435;28;20134;-91
2021/08/17 07:32:59;;;;;;;4.80;1.70;;;18.90;99.90;;;;;;5076497;28;20485;-90
2021/08/17 07:35:26;;;;;;;2.38;1.60;;;20.00;99.90;;;;;;5076398;28;20068;-90
2021/08/17 07:37:54;;;;;;;1.75;1.30;;;21.40;99.90;;;;;;5076157;28;20131;-89
2021/08/17 07:40:21;;;;;;;6.22;1.65;;;22.90;99.70;;;;;;5076270;28;20044;-91
2021/08/17 07:42:48;;;;;;;2.17;1.25;;;24.20;93.20;;;;;;5076737;28;20138;-88
2021/08/17 07:45:16;;;;;;;3.58;1.70;;;24.90;88.80;;;;;;5076492;28;20044;-93
2021/08/17 07:47:43;;;;;;;3.92;1.50;;;24.00;85.50;;;;;;5076609;28;20048;-89
2021/08/17 07:50:12;;;;;;;3.67;1.45;;;23.40;88.20;;;;;;5093081;28;20135;-90
2021/08/17 07:52:39;;;;;;;3.63;1.85;;;22.60;86.50;;;;;;5080568;28;20048;-91
2021/08/17 07:55:09;;;;;;;8.32;2.10;;;22.00;86.20;;;;;;5076114;28;20058;-91
2021/08/17 07:57:36;;;;;;;2.85;1.65;;;21.30;91.40;;;;;;5075907;28;20070;-89
2021/08/17 08:00:05;;;;;;;2.25;1.60;;;21.30;91.20;;;;;;5076237;28;20066;-90
2021/08/17 08:02:32;;;;;;;4.43;2.00;;;22.30;90.40;;;;;;5075862;28;20489;-91
2021/08/17 08:04:59;;;;;;;6.55;1.70;;;22.10;89.60;;;;;;5075976;28;20068;-87
2021/08/17 08:07:25;;;;;;;6.47;1.83;;;21.40;89.00;;;;;;5075783;28;20458;-89
2021/08/17 08:09:52;;;;;;;2.70;1.63;;;20.30;91.60;;;;;;5076032;28;20143;-88
2021/08/17 08:12:19;;;;;;;5.05;1.75;;;20.10;91.90;;;;;;5075842;28;20498;-89
2021/08/17 08:14:46;;;;;;;3.60;1.88;;;19.90;93.10;;;;;;5076028;28;20143;-89
2021/08/17 08:17:12;;;;;;;6.82;2.45;;;19.40;94.00;;;;;;5076344;28;20048;-89
2021/08/17 08:19:40;;;;;;;5.68;2.17;;;19.20;94.10;;;;;;5075875;28;20051;-89
2021/08/17 08:22:08;;;;;;;4.53;1.70;;;19.60;95.90;;;;;;5076082;28;20044;-90
2021/08/17 08:24:35;;;;;;;3.10;1.77;;;19.60;95.20;;;;;;5075843;28;20408;-92
2021/08/17 08:27:03;;;;;;;6.20;1.80;;;19.40;95.20;;;;;;5076030;28;20134;-89
2021/08/17 08:29:30;;;;;;;4.88;2.30;;;19.90;97.00;;;;;;5075902;28;20058;-90
2021/08/17 08:31:57;;;;;;;6.28;2.33;;;19.90;95.00;;;;;;5075907;28;20417;-88
2021/08/17 08:34:23;;;;;;;5.72;2.03;;;20.00;95.60;;;;;;5075758;28;20052;-90
2021/08/17 08:36:50;;;;;;;4.20;2.08;;;19.60;95.20;;;;;;5075497;28;20050;-89
2021/08/17 08:39:19;;;;;;;5.00;1.70;;;19.20;95.50;;;;;;5075996;28;20048;-89
2021/08/17 08:41:51;;;;;;;6.35;2.38;;;18.90;96.40;;;;;;5076531;28;20048;-93
2021/08/17 08:44:18;;;;;;;6.00;2.00;;;18.70;98.20;;;;;;5075663;28;20058;-89
2021/08/17 08:46:44;;;;;;;6.25;2.80;;;18.60;97.70;;;;;;5075375;28;20056;-91
2021/08/17 08:49:12;;;;;;;6.03;2.50;;;18.40;99.70;;;;;;5075473;28;20072;-90
2021/08/17 08:51:38;;;;;;;4.07;2.25;;;18.70;99.90;;;;;;5075851;28;20044;-88
2021/08/17 08:54:07;;;;;;;4.63;2.45;;;19.10;99.80;;;;;;5075430;28;20101;-89
2021/08/17 08:56:34;;;;;;;4.03;2.00;;;19.70;96.40;;;;;;5075458;28;20477;-90
2021/08/17 08:59:01;;;;;;;4.50;1.90;;;20.20;96.80;;;;;;5075710;28;20400;-90
2021/08/17 09:01:28;;;;;;;3.38;2.00;;;20.30;94.90;;;;;;5075700;28;20044;-90
2021/08/17 09:03:56;;;;;;;7.22;2.30;;;20.40;94.70;;;;;;5075550;28;20048;-90
2021/08/17 09:06:28;;;;;;;4.60;2.25;;;20.30;94.20;;;;;;5075868;28;20048;-88
2021/08/17 09:09:16;;;;;;;4.85;2.20;;;21.10;93.30;;;;;;5094216;28;20051;-89
2021/08/17 09:11:45;;;;;;;6.90;2.38;;;21.90;92.00;;;;;;5085393;28;20526;-90
2021/08/17 09:14:30;;;;;;;5.38;2.25;;;21.30;91.30;;;;;;5079588;28;20050;-92
2021/08/17 09:16:59;;;;;;;4.57;2.00;;;23.30;87.40;;;;;;5079014;28;20462;-90
2021/08/17 09:19:29;;;;;;;5.50;2.22;;;23.20;84.30;;;;;;5078843;28;20403;-92
2021/08/17 09:22:03;;;;;;;6.43;2.40;;;23.50;81.60;;;;;;5081729;28;20048;-88
2021/08/17 09:24:32;;;;;;;11.98;2.35;;;23.90;80.20;;;;;;5081171;28;20051;-89
2021/08/17 09:27:03;;;;;;;3.50;2.50;;;23.60;79.00;;;;;;5078909;28;20138;-89
2021/08/17 09:29:34;;;;;;;2.45;2.03;;;23.00;80.50;;;;;;5078436;28;20084;-92
2021/08/17 09:32:12;;;;;;;4.82;2.40;;;22.40;81.10;;;;;;5079179;28;20101;-90
2021/08/17 09:34:40;;;;;;;5.13;2.92;;;21.70;81.70;;;;;;5078438;28;20054;-89
2021/08/17 09:37:11;;;;;;;4.15;2.20;;;21.50;84.90;;;;;;5078322;28;20051;-88
2021/08/17 09:39:41;;;;;;;5.30;2.33;;;21.10;85.00;;;;;;5078589;28;20040;-89
2021/08/17 09:42:20;;;;;;;7.68;2.92;;;21.20;85.20;;;;;;5078893;28;20147;-93
2021/08/17 09:45:04;;;;;;;5.05;2.72;;;21.40;83.70;;;;;;5080633;28;20048;-89
2021/08/17 09:47:32;;;;;;;4.72;2.42;;;23.60;79.70;;;;;;5078825;28;20484;-90
2021/08/17 09:50:20;;;;;;;4.57;2.55;;;25.90;74.70;;;;;;5078455;28;20056;-89
2021/08/17 09:52:49;;;;;;;4.88;2.58;;;25.40;70.50;;;;;;5078587;28;20544;-92
2021/08/17 09:55:20;;;;;;;4.22;2.13;;;25.10;70.00;;;;;;5078608;28;20055;-88
2021/08/17 09:57:48;;;;;;;3.97;2.28;;;23.80;74.50;;;;;;5078221;28;20072;-89
2021/08/17 10:00:16;;;;;;;4.15;2.42;;;24.10;73.10;;;;;;5077893;28;20131;-94
2021/08/17 10:02:48;;;;;;;3.65;2.70;;;24.20;72.70;;;;;;5078132;28;20510;-91
2021/08/17 10:05:15;;;;;;;7.82;2.65;;;23.90;75.00;;;;;;5078006;28;20056;-89
2021/08/17 10:07:43;;;;;;;5.00;2.60;;;24.00;73.10;;;;;;5078033;28;20135;-91
2021/08/17 10:10:11;;;;;;;4.93;2.67;;;24.30;74.50;;;;;;5078630;28;20058;-91
2021/08/17 10:12:38;;;;;;;5.55;2.80;;;23.00;75.50;;;;;;5077709;28;20044;-91
2021/08/17 10:15:09;;;;;;;7.47;2.78;;;21.90;76.50;;;;;;5077512;28;20401;-89
2021/08/17 10:17:36;;;;;;;6.18;2.72;;;21.60;79.90;;;;;;5077951;28;20048;-90
2021/08/17 10:20:04;;;;;;;5.07;2.80;;;21.70;79.80;;;;;;5077485;28;20071;-92
2021/08/17 10:22:32;;;;;;;4.97;2.80;;;22.00;78.40;;;;;;5078353;28;20117;-90
2021/08/17 10:25:05;;;;;;;4.57;2.78;;;21.40;79.90;;;;;;5079022;28;20135;-92
2021/08/17 10:27:33;;;;;;;;;;;21.50;81.90;;;;;;5094368;28;20099;-92
2021/08/17 10:30:34;;;;;;;15.60;3.17;;;22.00;79.50;;;;;;5086548;28;19920;-89
2021/08/17 10:33:01;;;;;;;6.18;2.83;;;21.80;79.40;;;;;;5026087;28;20589;-91
2021/08/17 10:35:34;;;;;;;3.13;2.63;;;22.80;78.70;;;;;;5078092;28;20060;-88
2021/08/17 10:38:07;;;;;;;10.33;3.33;;;22.90;76.80;;;;;;5077498;28;20063;-88
2021/08/17 10:40:51;;;;;;;6.40;3.30;;;22.50;77.10;;;;;;5077720;28;20062;-88
2021/08/17 10:43:30;;;;;;;3.72;2.70;;;22.20;81.40;;;;;;5077509;28;20553;-90
2021/08/17 10:46:05;;;;;;;3.58;3.15;;;22.20;78.80;;;;;;5077019;28;20070;-89
2021/08/17 10:49:05;;;;;;;7.88;3.42;;;22.10;80.10;;;;;;5077093;28;20083;-91
2021/08/17 10:51:37;;;;;;;5.07;2.72;;;22.20;79.60;;;;;;5095337;28;20090;-89
2021/08/17 10:54:03;;;;;;;6.30;3.38;;;22.60;77.50;;;;;;5077765;28;20048;-88
2021/08/17 10:56:34;;;;;;;9.70;3.08;;;22.70;75.10;;;;;;5077448;28;20060;-90
2021/08/17 10:59:02;;;;;;;5.60;2.95;;;22.50;80.80;;;;;;5077468;28;20135;-87
2021/08/17 11:01:36;;;;;;;7.43;3.47;;;22.60;75.40;;;;;;5077402;28;20504;-89
2021/08/17 11:04:11;;;;;;;5.97;3.13;;;22.70;75.30;;;;;;5077346;28;20048;-90
2021/08/17 11:06:49;;;;;;;4.45;3.38;;;22.80;75.60;;;;;;5076954;28;20555;-89
2021/08/17 11:09:36;;;;;;;6.00;3.67;;;22.30;75.90;;;;;;5077927;28;20076;-95
2021/08/17 11:12:11;;;;;;;7.68;3.15;;;22.10;77.10;;;;;;5077534;28;20052;-89
2021/08/17 11:14:39;;;;;;;7.03;2.90;;;21.60;77.20;;;;;;5076893;28;20139;-91
2021/08/17 11:17:11;;;;;;;4.72;2.78;;;21.40;79.40;;;;;;5094425;28;20056;-89
2021/08/17 11:19:45;;;;;;;5.05;2.90;;;21.40;81.20;;;;;;5076226;28;20054;-89
2021/08/17 11:22:21;;;;;;;8.35;3.13;;;21.30;81.10;;;;;;5077093;28;20075;-88
2021/08/17 11:24:53;;;;;;;8.80;3.45;;;21.30;79.40;;;;;;5094639;28;20048;-88
2021/08/17 11:27:27;;;;;;;4.50;3.35;;;21.50;79.50;;;;;;5077249;28;20060;-91
2021/08/17 11:30:04;;;;;;;9.35;3.45;;;21.80;79.40;;;;;;5076965;28;20127;-88
2021/08/17 11:32:45;;;;;;;6.93;3.15;;;22.00;78.70;;;;;;5093991;28;20050;-88
2021/08/17 11:35:20;;;;;;;5.90;3.33;;;22.00;77.80;;;;;;5077045;28;20489;-89
2021/08/17 11:37:50;;;;;;;7.75;3.75;;;21.60;78.30;;;;;;5076627;28;20058;-88
2021/08/17 11:40:18;;;;;;;11.30;3.33;;;21.90;79.00;;;;;;5076649;28;20062;-89
2021/08/17 11:42:49;;;;;;;8.32;3.53;;;21.90;77.00;;;;;;5076789;28;20075;-87
2021/08/17 11:45:18;;;;;;;11.77;4.03;;;21.50;77.40;;;;;;5082339;28;20034;-88
2021/08/17 11:47:47;;;;;;;7.03;3.42;;;21.20;77.80;;;;;;5093161;28;20064;-90
2021/08/17 11:50:16;;;;;;;5.32;3.88;;;21.10;81.50;;;;;;5077584;28;20086;-90
2021/08/17 11:52:44;;;;;;;9.98;3.70;;;20.90;80.10;;;;;;5076493;28;20407;-90
2021/08/17 11:55:28;;;;;;;6.70;3.65;;;21.00;81.90;;;;;;5076500;28;20443;-89
2021/08/17 11:58:04;;;;;;;4.53;3.50;;;21.30;82.20;;;;;;5076731;28;20139;-88
2021/08/17 12:00:32;;;;;;;6.15;3.45;;;21.80;80.20;;;;;;5076398;28;20044;-88
2021/08/17 12:03:05;;;;;;;5.75;3.33;;;22.50;78.60;;;;;;5076215;28;20576;-86
2021/08/17 12:05:35;;;;;;;3.50;3.20;;;22.70;79.70;;;;;;5076825;28;20055;-88
2021/08/17 12:08:10;;;;;;;4.80;3.55;;;22.60;77.20;;;;;;5077121;28;20396;-91
2021/08/17 12:10:39;;;;;;;7.82;3.75;;;22.60;77.90;;;;;;5078880;28;20056;-89
2021/08/17 12:13:08;;;;;;;5.00;4.22;;;22.50;78.80;;;;;;5078276;28;20052;-89
2021/08/17 12:15:34;;;;;;;4.70;3.20;;;22.60;77.70;;;;;;5076025;28;20543;-87
2021/08/17 12:18:16;;;;;;;6.22;3.67;;;22.70;77.10;;;;;;5075514;28;20050;-92
2021/08/17 12:20:43;;;;;;;6.68;3.97;;;22.30;78.10;;;;;;5076012;28;20052;-85
2021/08/17 12:23:22;;;;;;;17.05;4.43;;;21.70;79.50;;;;;;5076655;28;20070;-89
2021/08/17 12:25:51;;;;;;;5.95;3.55;;;21.30;79.20;;;;;;5076072;28;20131;-87
2021/08/17 12:28:45;;;;;;;8.30;3.78;;;21.00;78.90;;;;;;5093764;28;20076;-85
2021/08/17 12:31:30;;;;;;;5.97;4.05;;;20.40;80.20;;;;;;5090672;28;20047;-88
2021/08/17 12:34:07;;;;;;;5.20;3.70;;;20.10;83.60;;;;;;5076292;28;20123;-88
2021/08/17 12:36:37;;;;;;;8.20;3.78;;;19.90;85.80;;;;;;5075878;28;20051;-88
2021/08/17 12:39:18;;;;;;;4.95;3.83;;;19.90;84.70;;;;;;5056119;28;20055;-88
2021/08/17 12:42:04;;;;;;;14.05;5.00;;;20.00;85.80;;;;;;5056176;28;20049;-91
2021/08/17 12:44:33;;;;;;;10.65;4.20;;;20.10;83.10;;;;;;5058213;28;20496;-88
2021/08/17 12:47:23;;;;;;;4.97;3.92;;;20.20;83.50;;;;;;5059334;28;20080;-90
2021/08/17 12:50:03;;;;;;;11.43;4.40;;;20.50;83.40;;;;;;5059969;28;20411;-88
2021/08/17 12:52:39;;;;;;;7.82;4.45;;;20.30;83.20;;;;;;5077095;28;20412;-88